createdAt,value
2023-05-16T13:39:22.315Z,964.34
2023-05-16T13:40:22.476Z,964.32
2023-05-16T13:41:22.656Z,964.34
2023-05-16T13:42:22.978Z,964.35
2023-05-16T13:43:23.240Z,964.33
2023-05-16T13:44:23.526Z,964.36
2023-05-16T13:45:23.847Z,964.40
2023-05-16T13:46:24.137Z,964.41
2023-05-16T13:47:24.402Z,964.37
2023-05-16T13:48:25.621Z,964.36
2023-05-16T13:49:24.922Z,964.41
2023-05-16T13:50:25.275Z,964.44
2023-05-16T13:51:25.483Z,964.41
2023-05-16T13:52:25.768Z,964.41
2023-05-16T13:53:26.013Z,964.39
2023-05-16T13:54:26.280Z,964.32
2023-05-16T13:55:26.783Z,964.37
2023-05-16T13:56:26.850Z,964.34
2023-05-16T13:57:27.092Z,964.34
2023-05-16T13:58:27.348Z,964.38
2023-05-16T13:59:46.150Z,964.40
2023-05-16T14:00:43.319Z,964.39
2023-05-16T14:01:29.139Z,964.40
2023-05-16T14:02:28.268Z,964.42
2023-05-16T14:03:28.550Z,964.40
2023-05-16T14:04:28.789Z,964.43
2023-05-16T14:05:29.030Z,964.46
2023-05-16T14:06:29.287Z,964.48
2023-05-16T14:07:29.573Z,964.46
2023-05-16T14:08:29.796Z,964.47
2023-05-16T14:09:30.084Z,964.45
2023-05-16T14:10:30.444Z,964.45
2023-05-16T14:11:30.555Z,964.50
2023-05-16T14:12:30.785Z,964.45
2023-05-16T14:13:31.027Z,964.47
2023-05-16T14:14:31.297Z,964.44
2023-05-16T14:15:31.795Z,964.47
2023-05-16T14:16:31.829Z,964.49
2023-05-16T14:17:33.048Z,964.53
2023-05-16T14:18:32.289Z,964.47
2023-05-16T14:19:32.650Z,964.51
2023-05-16T14:20:32.767Z,964.49
2023-05-16T14:21:32.868Z,964.49
2023-05-16T14:22:33.128Z,964.44
2023-05-16T14:23:33.374Z,964.43
2023-05-16T14:24:33.545Z,964.44
2023-05-16T14:25:33.786Z,964.47
2023-05-16T14:26:34.042Z,964.44
2023-05-16T14:27:34.281Z,964.42
2023-05-16T14:28:34.558Z,964.45
